Time;durP1;ratioP1;P1;durP2;ratioP2;P2;SDS_P1;SDS_P2;PMS_P1;PMS_P2;Temp;Humidity;BMP_temperature;BMP_pressure;BME280_temperature;BME280_humidity;BME280_pressure;Samples;Min_cycle;Max_cycle;Signal;HPM_P1;HPM_P2
2021/06/06 00:00:11;;;;;;;1.17;1.08;;;;;;;16.91;87.81;96075.94;4995076;28;20203;-87
2021/06/06 00:02:37;;;;;;;1.10;0.95;;;;;;;16.95;86.34;96076.28;4994975;28;20199;-87
2021/06/06 00:05:03;;;;;;;1.20;1.10;;;;;;;17.00;85.49;96062.69;4995080;28;20679;-86
2021/06/06 00:07:29;;;;;;;1.48;1.38;;;;;;;17.10;86.69;96074.28;4995490;28;20231;-87
2021/06/06 00:09:55;;;;;;;0.90;0.90;;;;;;;17.02;86.90;96069.28;4995294;28;20235;-88
2021/06/06 00:12:21;;;;;;;1.52;1.08;;;;;;;17.00;86.15;96068.69;4996275;28;20207;-86
2021/06/06 00:14:47;;;;;;;1.10;1.00;;;;;;;17.09;86.94;96064.06;4995578;28;20207;-85
2021/06/06 00:17:15;;;;;;;1.50;1.10;;;;;;;17.04;86.24;96064.69;4995154;28;20238;-85
2021/06/06 00:19:41;;;;;;;1.30;1.05;;;;;;;17.10;86.79;96068.28;4995365;28;20195;-87
2021/06/06 00:22:08;;;;;;;3.13;1.02;;;;;;;17.16;85.84;96064.81;4995713;28;20214;-87
2021/06/06 00:24:36;;;;;;;1.10;1.00;;;;;;;17.10;85.57;96063.06;4994678;28;20226;-86
2021/06/06 00:27:03;;;;;;;1.45;1.10;;;;;;;17.15;86.03;96071.03;4995449;28;20654;-89
2021/06/06 00:29:29;;;;;;;1.52;1.00;;;;;;;17.22;85.39;96066.63;4995716;28;20222;-85
2021/06/06 00:31:56;;;;;;;1.52;0.90;;;;;;;17.19;87.50;96067.03;4996399;28;20675;-87
2021/06/06 00:34:25;;;;;;;1.08;1.00;;;;;;;17.22;86.26;96075.22;4996668;28;20191;-87
2021/06/06 00:36:52;;;;;;;0.88;0.88;;;;;;;17.30;85.43;96074.22;4995958;28;20231;-87
2021/06/06 00:39:18;;;;;;;1.00;1.00;;;;;;;17.39;84.87;96072.16;4995936;28;20199;-86
2021/06/06 00:41:46;;;;;;;0.95;0.95;;;;;;;17.36;84.78;96075.16;4993217;28;20199;-87
2021/06/06 00:44:13;;;;;;;1.10;1.00;;;;;;;17.33;84.62;96081.59;4989239;28;20235;-87
2021/06/06 00:46:40;;;;;;;1.70;1.15;;;;;;;17.34;85.27;96072.78;4995538;28;20655;-87
2021/06/06 00:49:07;;;;;;;1.10;0.90;;;;;;;17.30;84.54;96066.41;4993368;28;20200;-85
2021/06/06 00:51:42;;;;;;;1.30;1.00;;;;;;;17.27;85.04;96059.81;4994808;28;20687;-85
2021/06/06 00:54:12;;;;;;;0.98;0.90;;;;;;;17.25;86.69;96056.59;4994694;28;20355;-87
2021/06/06 00:56:39;;;;;;;1.77;1.10;;;;;;;17.20;86.43;96061.63;4995259;28;20224;-86
2021/06/06 00:59:06;;;;;;;1.42;1.00;;;;;;;17.26;85.50;96053.00;4995403;28;20233;-87
2021/06/06 01:01:33;;;;;;;0.98;0.93;;;;;;;17.27;86.00;96059.00;4994991;28;20203;-85
2021/06/06 01:04:00;;;;;;;0.82;0.82;;;;;;;17.28;84.75;96060.59;4994183;28;20223;-87
2021/06/06 01:06:31;;;;;;;1.02;0.90;;;;;;;17.29;84.69;96059.59;4995623;28;20207;-87
2021/06/06 01:08:59;;;;;;;2.35;1.10;;;;;;;17.26;87.03;96058.19;4994354;28;20199;-87
2021/06/06 01:11:31;;;;;;;1.13;0.90;;;;;;;17.26;86.48;96055.59;4995646;28;20203;-87
2021/06/06 01:14:02;;;;;;;1.35;0.98;;;;;;;17.25;85.70;96055.81;4995625;28;20206;-86
2021/06/06 01:16:33;;;;;;;0.98;0.95;;;;;;;17.25;85.97;96061.00;4995144;28;20199;-87
2021/06/06 01:19:04;;;;;;;1.05;1.02;;;;;;;17.34;85.30;96043.34;4997503;28;20203;-86
2021/06/06 01:21:46;;;;;;;1.77;1.15;;;;;;;17.34;85.86;96044.13;4995250;28;20246;-86
2021/06/06 01:24:21;;;;;;;0.93;0.93;;;;;;;17.33;85.71;96045.13;4996238;28;20745;-86
2021/06/06 01:26:53;;;;;;;2.03;0.95;;;;;;;17.33;85.43;96047.75;4994531;28;20309;-87
2021/06/06 01:29:30;;;;;;;1.10;1.00;;;;;;;17.35;85.77;96042.34;4995833;28;20188;-87
2021/06/06 01:32:01;;;;;;;2.17;1.00;;;;;;;17.34;85.17;96040.72;4994706;28;20187;-86
2021/06/06 01:34:28;;;;;;;1.27;0.90;;;;;;;17.30;85.40;96044.78;4995118;28;20204;-87
2021/06/06 01:36:59;;;;;;;1.52;1.10;;;;;;;17.35;85.77;96034.53;4994492;28;20227;-88
2021/06/06 01:39:30;;;;;;;1.00;1.00;;;;;;;17.32;85.70;96048.75;4995798;28;20214;-87
2021/06/06 01:41:59;;;;;;;1.08;1.00;;;;;;;17.33;85.95;96039.13;4995733;28;20207;-86
2021/06/06 01:44:28;;;;;;;1.10;1.00;;;;;;;17.27;85.85;96038.19;4994448;28;20565;-85
2021/06/06 01:47:00;;;;;;;1.30;1.10;;;;;;;17.25;85.84;96029.78;4994490;28;20224;-87
2021/06/06 01:49:27;;;;;;;1.10;1.10;;;;;;;17.21;86.51;96031.19;4995309;28;20226;-87
2021/06/06 01:51:56;;;;;;;1.40;1.25;;;;;;;17.15;86.79;96035.41;4992915;28;20583;-86
2021/06/06 01:54:27;;;;;;;1.10;1.08;;;;;;;17.16;86.56;96031.00;4994746;28;20208;-87
2021/06/06 01:56:56;;;;;;;0.85;0.85;;;;;;;17.09;86.81;96022.44;4993183;28;20714;-87
2021/06/06 01:59:27;;;;;;;1.20;1.05;;;;;;;17.04;87.35;96017.84;4993445;28;20537;-87
2021/06/06 02:01:54;;;;;;;1.25;1.15;;;;;;;17.04;87.61;96025.66;4994409;28;20196;-86
2021/06/06 02:04:23;;;;;;;1.20;1.10;;;;;;;17.04;87.57;96015.25;4993765;28;20215;-87
2021/06/06 02:06:53;;;;;;;1.88;1.10;;;;;;;17.05;88.64;96023.84;4993895;28;20224;-87
2021/06/06 02:09:22;;;;;;;1.02;0.90;;;;;;;17.01;87.86;96023.47;4994663;28;20211;-87
2021/06/06 02:11:51;;;;;;;1.30;1.20;;;;;;;16.88;88.15;96024.31;4992508;28;20214;-86
2021/06/06 02:14:25;;;;;;;2.15;1.25;;;;;;;16.96;88.23;96023.25;4994164;28;20271;-85
2021/06/06 02:16:56;;;;;;;0.98;0.98;;;;;;;17.00;88.31;96024.47;4994400;28;20211;-87
2021/06/06 02:19:24;;;;;;;0.98;0.93;;;;;;;16.98;88.36;96018.66;4993384;28;20679;-86
2021/06/06 02:21:51;;;;;;;1.00;0.90;;;;;;;16.92;88.12;96022.91;4994654;28;20230;-85
2021/06/06 02:24:18;;;;;;;1.63;1.05;;;;;;;16.95;88.33;96021.66;4995356;28;20350;-88
2021/06/06 02:26:49;;;;;;;1.55;1.10;;;;;;;17.01;88.46;96023.47;4995822;28;20223;-85
2021/06/06 02:29:23;;;;;;;1.15;1.00;;;;;;;17.01;87.67;96017.44;5000207;28;20579;-87
2021/06/06 02:31:59;;;;;;;4.65;1.40;;;;;;;17.05;88.16;96016.03;5011243;28;20195;-89
2021/06/06 02:34:31;;;;;;;1.40;1.15;;;;;;;17.00;87.43;96016.66;4993019;28;20242;-87
2021/06/06 02:37:04;;;;;;;1.23;1.13;;;;;;;16.99;88.39;96012.47;4993965;28;20219;-88
2021/06/06 02:39:34;;;;;;;2.22;1.10;;;;;;;16.99;87.42;96016.84;4992987;28;20207;-88
2021/06/06 02:42:05;;;;;;;1.67;1.15;;;;;;;17.03;87.46;96016.25;4992486;28;20207;-87
2021/06/06 02:44:40;;;;;;;1.00;0.93;;;;;;;16.97;88.20;96016.25;4992057;28;20223;-87
2021/06/06 02:47:07;;;;;;;0.93;0.90;;;;;;;17.02;87.09;96009.44;4994612;28;20226;-87
2021/06/06 02:49:38;;;;;;;1.17;1.08;;;;;;;17.06;87.64;96018.44;4993968;28;20196;-87
2021/06/06 02:52:16;;;;;;;1.40;1.00;;;;;;;17.01;87.64;96007.84;4992819;28;20199;-86
2021/06/06 02:54:45;;;;;;;0.90;0.90;;;;;;;17.08;87.21;96010.44;4993514;28;20199;-85
2021/06/06 02:57:14;;;;;;;1.58;1.00;;;;;;;17.10;87.39;96016.22;4994781;28;20616;-89
2021/06/06 02:59:46;;;;;;;1.10;1.10;;;;;;;17.13;87.36;96011.38;4994075;28;20621;-86
2021/06/06 03:02:17;;;;;;;1.40;1.00;;;;;;;17.19;86.97;96012.38;4995213;28;20203;-87
2021/06/06 03:04:49;;;;;;;0.98;0.98;;;;;;;17.18;86.66;96014.19;4994282;28;20215;-86
2021/06/06 03:07:21;;;;;;;1.10;1.00;;;;;;;17.17;87.36;96025.59;4995046;28;20220;-85
2021/06/06 03:09:47;;;;;;;1.52;1.17;;;;;;;17.06;87.29;96020.25;4992822;28;20253;-88
2021/06/06 03:12:15;;;;;;;6.07;1.20;;;;;;;17.05;87.03;96016.84;4995812;28;20223;-85
2021/06/06 03:14:45;;;;;;;1.00;1.00;;;;;;;17.07;87.88;96021.84;4996304;28;20208;-88
2021/06/06 03:17:19;;;;;;;1.30;1.20;;;;;;;17.02;88.20;96017.25;4995457;28;20223;-87
2021/06/06 03:19:48;;;;;;;0.90;0.90;;;;;;;17.09;88.16;96014.63;4996707;28;20290;-88
2021/06/06 03:22:18;;;;;;;1.58;1.00;;;;;;;17.05;88.60;96014.25;4996161;28;20210;-87
2021/06/06 03:24:48;;;;;;;1.20;1.10;;;;;;;17.06;88.39;96008.03;4996149;28;20231;-87
2021/06/06 03:27:16;;;;;;;1.48;1.00;;;;;;;17.08;88.17;96008.63;4995925;28;20230;-87
2021/06/06 03:29:53;;;;;;;1.10;1.00;;;;;;;17.00;88.13;96013.25;4995230;28;20685;-88
2021/06/06 03:32:24;;;;;;;1.35;0.90;;;;;;;16.91;89.12;96021.31;4995635;28;20609;-86
2021/06/06 03:34:50;;;;;;;1.38;1.10;;;;;;;16.91;90.71;96018.69;4995156;28;20195;-86
2021/06/06 03:37:17;;;;;;;1.45;1.00;;;;;;;16.96;89.83;96017.25;4995926;28;20319;-87
2021/06/06 03:39:43;;;;;;;1.45;1.10;;;;;;;16.99;89.17;96014.25;4995859;28;20222;-87
2021/06/06 03:42:10;;;;;;;2.25;1.20;;;;;;;17.03;89.18;96013.66;4995986;28;20689;-87
2021/06/06 03:44:36;;;;;;;1.00;1.00;;;;;;;16.86;89.89;96010.72;4995202;28;20962;-87
2021/06/06 03:47:04;;;;;;;1.17;1.08;;;;;;;16.88;89.96;96002.69;4996154;28;20274;-86
2021/06/06 03:49:30;;;;;;;1.13;1.00;;;;;;;16.83;90.68;95999.91;4995291;28;20203;-86
2021/06/06 03:51:56;;;;;;;0.98;0.98;;;;;;;16.75;91.50;95998.31;4994905;28;20210;-87
2021/06/06 03:54:22;;;;;;;1.52;1.10;;;;;;;16.84;90.49;95996.31;4995457;28;20203;-87
2021/06/06 03:56:49;;;;;;;2.03;0.95;;;;;;;16.91;90.47;95997.91;4995053;28;20227;-87
2021/06/06 03:59:17;;;;;;;0.90;0.90;;;;;;;16.97;90.52;95998.84;4995793;28;20200;-87
2021/06/06 04:01:44;;;;;;;2.80;1.02;;;;;;;16.92;90.33;95999.50;4995665;28;20203;-85
2021/06/06 04:04:12;;;;;;;1.10;1.00;;;;;;;16.92;89.87;96002.09;4995683;28;20559;-86
2021/06/06 04:06:38;;;;;;;1.13;1.00;;;;;;;16.71;91.11;95989.34;4994571;28;20199;-85
2021/06/06 04:09:05;;;;;;;1.90;1.15;;;;;;;16.80;91.02;95988.09;4995903;28;20254;-87
2021/06/06 04:11:31;;;;;;;1.27;1.15;;;;;;;16.84;91.18;95991.91;4994684;28;20222;-85
2021/06/06 04:13:57;;;;;;;1.58;1.15;;;;;;;16.87;91.01;95993.28;4994884;28;20207;-87
2021/06/06 04:16:24;;;;;;;5.05;1.08;;;;;;;16.90;90.81;95996.28;4994817;28;20206;-87
2021/06/06 04:18:50;;;;;;;1.23;1.10;;;;;;;16.90;90.59;95996.28;4995558;28;20269;-86
2021/06/06 04:21:21;;;;;;;0.90;0.90;;;;;;;16.89;90.64;96001.69;4994609;28;20203;-87
2021/06/06 04:23:47;;;;;;;1.25;1.15;;;;;;;16.84;90.89;96004.09;4990244;28;20613;-87
2021/06/06 04:26:13;;;;;;;1.02;0.93;;;;;;;16.92;90.71;96006.50;4995526;28;20687;-87
2021/06/06 04:28:40;;;;;;;1.10;1.00;;;;;;;16.92;90.71;96002.09;4995514;28;20215;-85
2021/06/06 04:31:07;;;;;;;1.13;1.00;;;;;;;16.95;90.49;96000.84;4995566;28;20202;-88
2021/06/06 04:33:34;;;;;;;1.17;0.90;;;;;;;16.99;90.35;95996.03;4995588;28;20243;-87
2021/06/06 04:36:01;;;;;;;1.20;1.10;;;;;;;17.01;90.42;95987.03;4995038;28;20200;-86
2021/06/06 04:38:29;;;;;;;1.30;1.15;;;;;;;17.03;90.71;95992.84;4994562;28;20222;-87
2021/06/06 04:40:58;;;;;;;1.23;1.10;;;;;;;17.02;90.35;95991.22;4994251;28;20203;-86
2021/06/06 04:43:24;;;;;;;2.28;1.05;;;;;;;17.05;90.58;95984.81;4994935;28;20227;-87
2021/06/06 04:45:50;;;;;;;1.10;1.10;;;;;;;17.04;90.19;95991.03;4994577;28;20199;-87
2021/06/06 04:48:21;;;;;;;1.10;1.00;;;;;;;17.04;90.19;95983.22;4995454;28;20635;-86
2021/06/06 04:50:47;;;;;;;1.13;0.90;;;;;;;17.01;90.75;95983.63;4995062;28;20698;-85
2021/06/06 04:53:14;;;;;;;1.20;1.10;;;;;;;17.04;90.89;95991.03;4994398;28;20211;-87
2021/06/06 04:55:42;;;;;;;3.00;1.10;;;;;;;17.09;90.61;95997.22;4995938;28;20196;-87
2021/06/06 04:58:11;;;;;;;1.98;1.00;;;;;;;17.14;90.38;95997.38;4995477;28;20223;-87
2021/06/06 05:00:41;;;;;;;1.13;1.02;;;;;;;17.17;90.03;95990.97;4995026;28;20750;-87
2021/06/06 05:03:07;;;;;;;1.35;1.05;;;;;;;17.22;90.18;95996.34;4995634;28;20290;-87
2021/06/06 05:05:33;;;;;;;1.23;1.13;;;;;;;17.23;89.87;95998.75;4995497;28;20289;-87
2021/06/06 05:08:01;;;;;;;0.95;0.95;;;;;;;17.23;89.50;95997.94;4995191;28;20277;-87
2021/06/06 05:10:30;;;;;;;1.00;1.00;;;;;;;17.09;91.20;95992.00;4995037;28;20742;-87
2021/06/06 05:12:57;;;;;;;1.20;1.00;;;;;;;17.08;90.84;95994.81;4994632;28;20215;-86
2021/06/06 05:15:24;;;;;;;1.00;0.90;;;;;;;17.12;91.40;95994.22;4994439;28;20199;-87
2021/06/06 05:17:50;;;;;;;1.27;0.90;;;;;;;17.15;91.10;95988.56;4993633;28;20223;-87
2021/06/06 05:20:20;;;;;;;0.90;0.90;;;;;;;17.15;90.76;95996.38;4993946;28;20206;-86
2021/06/06 05:22:47;;;;;;;1.15;1.02;;;;;;;17.09;90.76;96004.22;4993345;28;20705;-88
2021/06/06 05:25:13;;;;;;;1.05;0.95;;;;;;;17.09;91.39;95997.22;4993190;28;20282;-87
2021/06/06 05:27:41;;;;;;;1.98;0.90;;;;;;;17.07;90.53;95993.22;4993502;28;20282;-86
2021/06/06 05:30:12;;;;;;;1.10;1.00;;;;;;;17.05;90.63;96001.22;4992637;28;20196;-85
2021/06/06 05:32:38;;;;;;;1.13;1.00;;;;;;;17.09;90.93;95996.41;4991686;28;20223;-85
2021/06/06 05:35:05;;;;;;;0.90;0.90;;;;;;;17.10;90.92;96001.41;4992592;28;20545;-87
2021/06/06 05:37:34;;;;;;;1.17;0.90;;;;;;;17.09;91.81;96005.03;4990075;28;20287;-87
2021/06/06 05:40:00;;;;;;;2.15;1.00;;;;;;;17.14;91.83;96004.38;4985412;28;20211;-87
2021/06/06 05:42:26;;;;;;;1.83;1.00;;;;;;;17.21;91.07;96010.38;4988593;28;20215;-85
2021/06/06 05:44:52;;;;;;;0.70;0.70;;;;;;;17.20;90.81;96009.56;5009967;28;20245;-86
2021/06/06 05:47:20;;;;;;;1.20;0.95;;;;;;;17.19;90.69;96009.78;4997870;28;20286;-85
2021/06/06 05:49:46;;;;;;;1.00;0.90;;;;;;;17.23;90.39;96003.97;5009738;28;20199;-88
2021/06/06 05:52:12;;;;;;;1.75;1.00;;;;;;;17.29;90.92;96007.53;5013545;28;20244;-87
2021/06/06 05:54:38;;;;;;;1.10;0.90;;;;;;;17.26;90.64;96003.53;4998805;28;20198;-88
2021/06/06 05:57:07;;;;;;;1.05;0.80;;;;;;;17.25;90.47;96008.97;4994491;28;20227;-86
2021/06/06 05:59:34;;;;;;;1.85;0.80;;;;;;;17.26;90.65;96007.94;4992090;28;20200;-87
2021/06/06 06:02:01;;;;;;;0.90;0.90;;;;;;;17.22;91.15;96006.75;4994189;28;20204;-86
2021/06/06 06:04:28;;;;;;;0.80;0.80;;;;;;;17.18;91.50;96003.78;4994294;28;20224;-86
2021/06/06 06:06:58;;;;;;;1.15;1.00;;;;;;;17.22;91.57;96010.16;4994858;28;20220;-87
2021/06/06 06:09:24;;;;;;;1.20;1.10;;;;;;;17.28;92.06;96003.34;4994214;28;20211;-88
2021/06/06 06:11:50;;;;;;;1.60;1.20;;;;;;;17.32;92.14;96008.94;4993957;28;20234;-86
2021/06/06 06:14:16;;;;;;;4.10;1.45;;;;;;;17.44;91.15;96000.25;4990505;28;20216;-84
2021/06/06 06:16:42;;;;;;;3.70;1.20;;;;;;;17.64;90.58;96004.53;4992686;28;20492;-84
2021/06/06 06:19:11;;;;;;;3.47;1.15;;;;;;;17.79;88.82;95986.84;5001683;28;20568;-87
2021/06/06 06:21:41;;;;;;;1.05;0.90;;;;;;;17.86;87.30;95991.00;4994743;28;20253;-86
2021/06/06 06:24:08;;;;;;;1.55;1.00;;;;;;;18.03;86.80;95986.06;5000411;28;20223;-85
2021/06/06 06:26:34;;;;;;;1.00;0.90;;;;;;;18.15;85.56;95984.34;4998853;28;20195;-83
2021/06/06 06:29:00;;;;;;;0.90;0.90;;;;;;;18.27;84.97;95987.84;4998378;28;20210;-85
2021/06/06 06:31:26;;;;;;;1.60;1.05;;;;;;;18.34;83.81;95992.19;4983470;28;20204;-84
2021/06/06 06:33:52;;;;;;;0.90;0.73;;;;;;;18.41;84.22;95978.09;4975432;28;20251;-85
2021/06/06 06:36:20;;;;;;;4.95;4.47;;;;;;;18.19;85.67;95995.13;4975124;28;20218;-86
2021/06/06 06:38:50;;;;;;;3.72;1.55;;;;;;;17.95;86.29;96000.13;4973968;28;20228;-85
2021/06/06 06:41:16;;;;;;;0.98;0.90;;;;;;;17.67;87.76;95996.34;4980281;28;20203;-87
2021/06/06 06:43:42;;;;;;;1.10;0.90;;;;;;;17.66;88.34;96005.16;4995368;28;20227;-87
2021/06/06 06:46:08;;;;;;;1.05;0.90;;;;;;;17.69;88.12;96004.75;4993789;28;20221;-87
2021/06/06 06:48:42;;;;;;;1.25;1.10;;;;;;;17.68;88.18;96000.53;4994166;28;20768;-87
2021/06/06 06:51:08;;;;;;;3.28;0.90;;;;;;;17.65;89.22;95999.16;4994042;28;20341;-87
2021/06/06 06:53:35;;;;;;;1.00;0.98;;;;;;;17.69;88.21;96004.75;4994544;28;20222;-86
2021/06/06 06:56:03;;;;;;;1.10;1.00;;;;;;;17.65;88.14;95998.34;4993847;28;20222;-87
2021/06/06 06:58:29;;;;;;;1.50;1.00;;;;;;;17.59;89.58;96000.75;4994800;28;20253;-87
2021/06/06 07:00:56;;;;;;;0.80;0.80;;;;;;;17.52;90.27;95996.59;4994105;28;20207;-88
2021/06/06 07:03:24;;;;;;;0.90;0.90;;;;;;;17.52;89.81;96002.59;4990541;28;20234;-85
2021/06/06 07:05:51;;;;;;;0.93;0.93;;;;;;;17.43;90.75;95996.03;4991091;28;20214;-87
2021/06/06 07:08:20;;;;;;;0.80;0.80;;;;;;;17.47;90.51;95996.44;4991830;28;20219;-86
2021/06/06 07:10:46;;;;;;;1.00;0.90;;;;;;;17.48;90.61;95998.81;4989895;28;20327;-84
2021/06/06 07:13:13;;;;;;;0.80;0.80;;;;;;;17.43;90.54;95990.03;4990763;28;20231;-85
2021/06/06 07:15:40;;;;;;;1.27;0.93;;;;;;;17.42;90.98;95993.66;4989770;28;20377;-84
2021/06/06 07:18:09;;;;;;;2.40;2.20;;;;;;;17.25;91.89;96004.56;4990282;28;20220;-87
2021/06/06 07:20:39;;;;;;;1.40;1.30;;;;;;;17.27;92.46;96002.53;4988996;28;20299;-87
2021/06/06 07:23:08;;;;;;;1.00;0.80;;;;;;;17.23;92.96;95998.75;4989138;28;20575;-86
2021/06/06 07:25:34;;;;;;;1.00;1.00;;;;;;;17.23;92.93;96001.34;4989865;28;20269;-87
2021/06/06 07:28:02;;;;;;;0.90;0.80;;;;;;;17.32;92.50;95995.91;4990322;28;20226;-86
2021/06/06 07:30:34;;;;;;;0.63;0.63;;;;;;;17.23;91.89;96000.56;4990063;28;20246;-86
2021/06/06 07:33:00;;;;;;;2.35;0.90;;;;;;;17.29;92.64;95989.31;4988398;28;20231;-87
2021/06/06 07:35:29;;;;;;;0.95;0.73;;;;;;;17.23;92.76;95990.94;4988047;28;20207;-83
2021/06/06 07:37:56;;;;;;;1.73;0.90;;;;;;;17.32;93.17;95996.69;4987557;28;20220;-85
2021/06/06 07:40:24;;;;;;;1.33;1.23;;;;;;;17.33;92.98;95998.28;4988694;28;20204;-86
2021/06/06 07:42:50;;;;;;;1.52;1.42;;;;;;;17.38;92.13;95988.06;4988715;28;20202;-86
2021/06/06 07:45:20;;;;;;;1.90;1.80;;;;;;;17.43;92.64;95996.03;4988719;28;20279;-86
2021/06/06 07:47:48;;;;;;;0.98;0.98;;;;;;;17.38;92.62;95993.25;4989372;28;20272;-86
2021/06/06 07:50:17;;;;;;;0.70;0.70;;;;;;;17.29;92.46;95997.13;4989067;28;20719;-86
2021/06/06 07:52:43;;;;;;;0.80;0.80;;;;;;;17.30;92.95;95992.72;4989361;28;20215;-86
2021/06/06 07:55:12;;;;;;;1.63;0.75;;;;;;;17.15;93.53;95996.38;4989665;28;20199;-85
2021/06/06 07:57:38;;;;;;;0.60;0.60;;;;;;;17.27;93.37;95994.72;4990836;28;20290;-86
2021/06/06 08:00:06;;;;;;;0.60;0.60;;;;;;;17.27;93.89;95994.72;4992311;28;20203;-85
2021/06/06 08:02:34;;;;;;;1.48;0.70;;;;;;;17.26;93.45;95993.13;4990358;28;20284;-85
2021/06/06 08:05:01;;;;;;;0.70;0.70;;;;;;;17.27;93.54;95994.72;4983969;28;20220;-85
2021/06/06 08:07:29;;;;;;;0.70;0.70;;;;;;;17.24;93.49;96000.34;4981642;28;20742;-86
2021/06/06 08:09:56;;;;;;;1.05;0.85;;;;;;;17.23;93.21;96000.56;4991833;28;20204;-87
2021/06/06 08:12:25;;;;;;;0.70;0.70;;;;;;;17.33;93.82;95997.47;4990556;28;20195;-86
2021/06/06 08:14:52;;;;;;;0.70;0.60;;;;;;;17.33;92.69;95992.28;4990345;28;20618;-85
2021/06/06 08:17:18;;;;;;;0.70;0.70;;;;;;;17.46;92.76;95984.41;4992699;28;20822;-87
2021/06/06 08:19:44;;;;;;;1.60;0.80;;;;;;;17.51;94.07;95990.56;4994172;28;20762;-88
2021/06/06 08:22:11;;;;;;;0.77;0.77;;;;;;;17.55;93.31;95991.75;4993489;28;20667;-85
2021/06/06 08:24:37;;;;;;;0.90;0.88;;;;;;;17.54;92.96;95986.75;4994353;28;20269;-87
2021/06/06 08:27:05;;;;;;;0.80;0.80;;;;;;;17.47;92.83;95996.44;4994279;28;20707;-85
2021/06/06 08:29:31;;;;;;;1.17;0.65;;;;;;;17.39;92.99;95997.47;4993966;28;20218;-85
2021/06/06 08:31:59;;;;;;;2.65;0.77;;;;;;;17.51;92.49;95987.19;4991618;28;20274;-87
2021/06/06 08:34:25;;;;;;;0.82;0.82;;;;;;;17.46;94.03;95987.81;4992682;28;20215;-86
2021/06/06 08:36:51;;;;;;;0.98;0.98;;;;;;;17.49;93.00;95994.41;4984570;28;20215;-86
2021/06/06 08:39:23;;;;;;;0.90;0.90;;;;;;;17.51;93.71;95989.81;4973798;28;20204;-85
2021/06/06 08:41:54;;;;;;;8.35;7.65;;;;;;;17.44;95.34;95995.03;4982524;28;20254;-87
2021/06/06 08:44:25;;;;;;;2.67;2.47;;;;;;;17.50;93.98;95990.81;4992857;28;20223;-84
2021/06/06 08:46:58;;;;;;;1.33;1.20;;;;;;;17.57;93.60;95986.34;4988831;28;20227;-85
2021/06/06 08:49:24;;;;;;;1.25;0.90;;;;;;;17.59;94.01;95979.91;4987324;28;20196;-87
2021/06/06 08:51:54;;;;;;;1.17;1.10;;;;;;;17.60;94.46;95991.94;4990747;28;20270;-84
2021/06/06 08:54:28;;;;;;;1.05;0.95;;;;;;;17.70;93.27;95985.50;4991478;28;20200;-87
2021/06/06 08:56:59;;;;;;;1.10;1.00;;;;;;;17.82;93.03;95989.03;4991218;28;20280;-85
2021/06/06 08:59:31;;;;;;;0.88;0.88;;;;;;;17.78;93.89;95990.44;4978273;28;20196;-84
2021/06/06 09:02:05;;;;;;;0.90;0.90;;;;;;;17.82;93.86;95989.81;4991039;28;20196;-87
2021/06/06 09:04:34;;;;;;;0.80;0.80;;;;;;;17.76;93.91;95990.66;4991858;28;20231;-88
2021/06/06 09:07:05;;;;;;;1.55;0.73;;;;;;;17.78;93.80;95991.25;4992246;28;20259;-84
2021/06/06 09:09:35;;;;;;;0.80;0.80;;;;;;;17.73;93.71;95988.47;4991295;28;20286;-88
2021/06/06 09:12:06;;;;;;;1.15;0.93;;;;;;;17.78;95.49;95993.06;4980172;28;20770;-87
2021/06/06 09:14:33;;;;;;;0.88;0.80;;;;;;;17.81;94.54;95993.44;4991463;28;20203;-88
2021/06/06 09:17:04;;;;;;;0.60;0.60;;;;;;;17.74;93.62;95989.25;4991643;28;20224;-88
2021/06/06 09:19:44;;;;;;;0.70;0.70;;;;;;;17.72;93.85;95989.47;4991984;28;20214;-87
2021/06/06 09:22:12;;;;;;;1.50;1.10;;;;;;;17.64;94.36;95992.34;4991487;28;20391;-88
2021/06/06 09:24:46;;;;;;;0.70;0.70;;;;;;;17.54;94.19;95991.97;4993348;28;20290;-85
2021/06/06 09:27:17;;;;;;;0.60;0.60;;;;;;;17.47;95.53;95996.44;4992519;28;20262;-87
2021/06/06 09:29:44;;;;;;;0.93;0.68;;;;;;;17.54;95.47;95999.78;4992691;28;20701;-87
2021/06/06 09:32:12;;;;;;;0.60;0.60;;;;;;;17.52;96.37;95991.38;4991705;28;20257;-88
2021/06/06 09:34:52;;;;;;;1.02;0.70;;;;;;;17.52;95.73;95997.38;4992287;28;20546;-84
2021/06/06 09:37:20;;;;;;;0.68;0.68;;;;;;;17.55;96.32;95998.78;4992821;28;20635;-88
2021/06/06 09:39:57;;;;;;;0.70;0.70;;;;;;;17.61;96.26;95998.75;4992810;28;20199;-88
2021/06/06 09:42:29;;;;;;;0.70;0.70;;;;;;;17.74;95.37;95992.66;4991446;28;20210;-87
2021/06/06 09:45:13;;;;;;;0.55;0.55;;;;;;;17.72;95.28;95993.88;4993417;28;20227;-87
2021/06/06 09:47:40;;;;;;;0.60;0.60;;;;;;;17.64;94.08;95997.56;4993248;28;20231;-86
2021/06/06 09:50:17;;;;;;;0.68;0.68;;;;;;;17.58;93.90;95996.56;4992542;28;20203;-87
2021/06/06 09:52:46;;;;;;;1.42;0.90;;;;;;;17.51;94.26;95995.00;4991840;28;20222;-88
2021/06/06 09:55:24;;;;;;;1.42;1.33;;;;;;;17.53;96.17;95993.78;4992491;28;20207;-84
2021/06/06 09:58:27;;;;;;;0.68;0.68;;;;;;;17.40;93.48;95996.47;4992408;28;20314;-85
2021/06/06 10:00:57;;;;;;;0.55;0.55;;;;;;;17.32;93.56;95999.28;4992597;28;20195;-87
2021/06/06 10:03:31;;;;;;;0.85;0.60;;;;;;;17.16;94.95;96000.56;4991958;28;20199;-87
2021/06/06 10:06:17;;;;;;;0.88;0.60;;;;;;;17.14;95.46;95997.38;4991480;28;20199;-87
2021/06/06 10:08:56;;;;;;;0.70;0.70;;;;;;;17.13;95.48;95989.78;4991870;28;20229;-85
2021/06/06 10:11:30;;;;;;;0.70;0.70;;;;;;;17.26;94.65;95997.53;4991272;28;20195;-87
2021/06/06 10:17:34;;;;;;;0.60;0.60;;;;;;;17.56;91.34;95993.34;4956708;28;20231;-87
2021/06/06 10:20:13;;;;;;;0.93;0.63;;;;;;;17.48;90.62;95996.22;4972400;28;20210;-85
2021/06/06 10:22:44;;;;;;;0.60;0.60;;;;;;;17.64;92.09;95997.56;4972118;28;20984;-86
2021/06/06 10:25:16;;;;;;;0.70;0.65;;;;;;;17.71;90.72;95992.28;4990587;28;20223;-87
2021/06/06 10:27:49;;;;;;;0.68;0.60;;;;;;;17.76;89.75;95989.84;4991362;28;20216;-87
2021/06/06 10:30:25;;;;;;;0.50;0.50;;;;;;;17.67;88.31;95996.34;4991467;28;20219;-87
2021/06/06 10:32:55;;;;;;;0.70;0.70;;;;;;;17.61;89.63;96000.53;4990022;28;20230;-86
2021/06/06 10:35:24;;;;;;;0.70;0.70;;;;;;;17.58;90.13;95998.34;4991356;28;20204;-86
2021/06/06 10:37:53;;;;;;;0.73;0.73;;;;;;;17.57;90.39;95997.56;4990384;28;20231;-83
2021/06/06 10:40:26;;;;;;;0.77;0.77;;;;;;;17.71;91.07;95998.28;4990092;28;20204;-88
2021/06/06 10:42:59;;;;;;;0.70;0.70;;;;;;;17.80;92.04;95991.84;4990311;28;20250;-87
2021/06/06 10:45:30;;;;;;;0.60;0.60;;;;;;;17.75;89.75;95993.47;4990088;28;20317;-86
2021/06/06 10:48:00;;;;;;;2.20;0.90;;;;;;;17.86;90.36;95982.38;4990338;28;20226;-87
2021/06/06 10:50:32;;;;;;;0.90;0.70;;;;;;;17.64;89.67;95988.91;4990499;28;20204;-88
2021/06/06 10:53:15;;;;;;;1.60;1.05;;;;;;;17.66;90.20;95992.94;4991607;28;20889;-86
2021/06/06 10:55:59;;;;;;;0.80;0.80;;;;;;;17.73;91.46;95985.06;4990098;28;20670;-86
2021/06/06 10:58:34;;;;;;;0.60;0.60;;;;;;;17.89;90.59;95987.97;4990638;28;20258;-87
2021/06/06 11:01:04;;;;;;;0.93;0.82;;;;;;;17.89;89.76;95987.19;4991297;28;20253;-86
2021/06/06 11:03:35;;;;;;;0.70;0.70;;;;;;;17.94;88.72;95980.31;4991947;28;20290;-86
2021/06/06 11:06:04;;;;;;;1.10;0.93;;;;;;;17.97;88.83;95989.50;4993631;28;20219;-86
2021/06/06 11:08:43;;;;;;;1.15;0.85;;;;;;;17.97;87.60;95988.69;4990175;28;20216;-86
2021/06/06 11:11:18;;;;;;;0.70;0.70;;;;;;;18.01;87.45;95989.88;4990280;28;20657;-87
2021/06/06 11:13:48;;;;;;;0.93;0.80;;;;;;;17.95;88.19;95984.50;4990351;28;20648;-86
2021/06/06 11:16:36;;;;;;;0.68;0.68;;;;;;;17.86;88.95;95977.97;4990333;28;20397;-88
2021/06/06 11:19:09;;;;;;;0.77;0.77;;;;;;;17.86;89.61;95977.97;4993703;28;20298;-87
2021/06/06 11:21:46;;;;;;;0.85;0.85;;;;;;;17.93;90.87;95967.47;4991673;28;20214;-87
2021/06/06 11:24:29;;;;;;;0.80;0.80;;;;;;;17.90;91.29;95973.91;4991476;28;20231;-87
2021/06/06 11:27:17;;;;;;;0.77;0.70;;;;;;;17.82;90.92;95968.19;4989400;28;20234;-87
2021/06/06 11:29:50;;;;;;;0.80;0.80;;;;;;;17.85;92.84;95972.97;4989732;28;20271;-86
2021/06/06 11:32:24;;;;;;;0.60;0.60;;;;;;;17.90;91.46;95968.69;4984634;28;20239;-87
2021/06/06 11:35:08;;;;;;;0.80;0.80;;;;;;;17.93;90.62;95968.28;4990794;28;20861;-86
2021/06/06 11:37:39;;;;;;;1.13;0.80;;;;;;;17.96;91.74;95961.84;4990326;28;20242;-87
2021/06/06 11:40:11;;;;;;;1.15;1.13;;;;;;;17.93;90.85;95959.66;4995451;28;20278;-88
2021/06/06 11:42:40;;;;;;;1.27;1.17;;;;;;;18.03;91.64;95962.59;4993297;28;20191;-88
2021/06/06 11:45:17;;;;;;;0.80;0.80;;;;;;;18.11;91.41;95956.31;4995485;28;20270;-86
2021/06/06 11:47:47;;;;;;;0.70;0.70;;;;;;;18.05;91.79;95955.38;4988647;28;20223;-85